Time,TemperatureF,DewpointF,PressureIn,WindDirection,WindDirectionDegrees,WindSpeedMPH,WindSpeedGustMPH,Humidity,HourlyPrecipIn,Conditions,Clouds,dailyrainin,SoftwareType,DateUTC
2013-08-23 00:12:00,69.0,68.0,30.04,SSW,196,2.0,4.0,95,0.00,,,0.00,weatherlink.com 1.10,2013-08-23 04:12:00,
2013-08-23 00:27:00,68.6,67.0,30.04,WSW,242,2.0,3.0,95,0.00,,,0.00,weatherlink.com 1.10,2013-08-23 04:27:00,
2013-08-23 00:42:00,68.3,67.0,30.04,SW,221,1.0,3.0,95,0.00,,,0.00,weatherlink.com 1.10,2013-08-23 04:42:00,
2013-08-23 00:57:00,68.1,67.0,30.04,WSW,247,1.0,3.0,95,0.00,,,0.00,weatherlink.com 1.10,2013-08-23 04:57:00,
2013-08-23 01:12:00,68.0,67.0,30.05,WSW,251,0.0,1.0,95,0.00,,,0.00,weatherlink.com 1.10,2013-08-23 05:12:00,
2013-08-23 01:27:00,67.9,67.0,30.05,WSW,251,1.0,1.0,95,0.00,,,0.00,weatherlink.com 1.10,2013-08-23 05:27:00,
2013-08-23 01:42:00,67.7,67.0,30.05,WSW,251,0.0,1.0,96,0.00,,,0.00,weatherlink.com 1.10,2013-08-23 05:42:00,
2013-08-23 01:57:00,67.8,67.0,30.05,WSW,251,1.0,2.0,96,0.00,,,0.00,weatherlink.com 1.10,2013-08-23 05:57:00,
2013-08-23 02:12:00,67.9,67.0,30.05,WSW,251,0.0,2.0,96,0.00,,,0.00,weatherlink.com 1.10,2013-08-23 06:12:00,
2013-08-23 02:27:00,67.7,67.0,30.05,North,5,1.0,2.0,96,0.00,,,0.00,weatherlink.com 1.10,2013-08-23 06:27:00,
2013-08-23 02:42:00,67.6,67.0,30.05,North,5,0.0,1.0,96,0.00,,,0.00,weatherlink.com 1.10,2013-08-23 06:42:00,
2013-08-23 02:57:00,67.3,66.0,30.04,North,5,1.0,2.0,96,0.00,,,0.00,weatherlink.com 1.10,2013-08-23 06:57:00,
2013-08-23 03:12:00,67.4,66.0,30.04,NE,44,0.0,2.0,96,0.00,,,0.00,weatherlink.com 1.10,2013-08-23 07:12:00,
2013-08-23 03:27:00,67.4,67.0,30.05,NE,44,0.0,2.0,97,0.00,,,0.00,weatherlink.com 1.10,2013-08-23 07:27:00,
2013-08-23 03:42:00,67.3,66.0,30.05,NE,44,0.0,1.0,96,0.00,,,0.00,weatherlink.com 1.10,2013-08-23 07:42:00,
2013-08-23 03:57:00,67.2,66.0,30.05,NE,44,1.0,1.0,97,0.00,,,0.00,weatherlink.com 1.10,2013-08-23 07:57:00,
2013-08-23 04:12:00,67.1,66.0,30.05,NW,309,0.0,1.0,96,0.00,,,0.00,weatherlink.com 1.10,2013-08-23 08:12:00,
2013-08-23 04:27:00,66.3,65.0,30.05,WSW,254,0.0,2.0,95,0.00,,,0.00,weatherlink.com 1.10,2013-08-23 08:27:00,
2013-08-23 04:42:00,65.6,64.0,30.05,ENE,73,1.0,1.0,93,0.00,,,0.00,weatherlink.com 1.10,2013-08-23 08:42:00,
2013-08-23 04:57:00,64.9,62.0,30.05,ENE,71,0.0,1.0,91,0.00,,,0.00,weatherlink.com 1.10,2013-08-23 08:57:00,
2013-08-23 05:12:00,64.2,62.0,30.05,ENE,71,0.0,2.0,92,0.00,,,0.00,weatherlink.com 1.10,2013-08-23 09:12:00,
2013-08-23 05:27:00,63.6,60.0,30.06,North,355,0.0,2.0,89,0.00,,,0.00,weatherlink.com 1.10,2013-08-23 09:27:00,
2013-08-23 05:43:00,62.8,60.0,30.06,North,355,0.0,1.0,91,0.00,,,0.00,weatherlink.com 1.10,2013-08-23 09:43:00,
2013-08-23 05:58:00,62.2,60.0,30.06,North,355,0.0,1.0,91,0.00,,,0.00,weatherlink.com 1.10,2013-08-23 09:58:00,
2013-08-23 06:13:00,61.6,60.0,30.07,North,355,0.0,1.0,93,0.00,,,0.00,weatherlink.com 1.10,2013-08-23 10:13:00,
2013-08-23 06:28:00,61.3,59.0,30.07,NNE,31,0.0,3.0,91,0.01,,,0.01,weatherlink.com 1.10,2013-08-23 10:28:00,
2013-08-23 06:43:00,60.9,59.0,30.08,NNE,30,0.0,1.0,92,0.01,,,0.01,weatherlink.com 1.10,2013-08-23 10:43:00,
2013-08-23 06:58:00,60.6,58.0,30.09,NNE,30,0.0,1.0,92,0.01,,,0.01,weatherlink.com 1.10,2013-08-23 10:58:00,
2013-08-23 07:13:00,60.7,58.0,30.09,NE,41,0.0,3.0,91,0.01,,,0.01,weatherlink.com 1.10,2013-08-23 11:13:00,
2013-08-23 07:28:00,61.7,59.0,30.09,NE,41,0.0,1.0,90,0.00,,,0.01,weatherlink.com 1.10,2013-08-23 11:28:00,
2013-08-23 07:43:00,62.3,59.0,30.10,North,360,2.0,3.0,89,0.00,,,0.01,weatherlink.com 1.10,2013-08-23 11:43:00,
2013-08-23 07:58:00,63.5,59.0,30.10,NE,44,1.0,3.0,86,0.00,,,0.01,weatherlink.com 1.10,2013-08-23 11:58:00,
2013-08-23 08:13:00,64.7,60.0,30.11,NNE,31,2.0,3.0,84,0.00,,,0.01,weatherlink.com 1.10,2013-08-23 12:13:00,
2013-08-23 08:28:00,65.7,60.0,30.11,ESE,102,3.0,3.0,82,0.00,,,0.01,weatherlink.com 1.10,2013-08-23 12:28:00,
2013-08-23 08:43:00,66.3,61.0,30.11,NE,53,1.0,5.0,83,0.00,,,0.01,weatherlink.com 1.10,2013-08-23 12:43:00,
2013-08-23 08:58:00,67.2,61.0,30.11,East,92,4.0,6.0,79,0.00,,,0.01,weatherlink.com 1.10,2013-08-23 12:58:00,
2013-08-23 09:13:00,68.1,61.0,30.11,NNE,32,3.0,5.0,78,0.00,,,0.01,weatherlink.com 1.10,2013-08-23 13:13:00,
2013-08-23 09:28:00,68.9,61.0,30.12,East,101,2.0,4.0,76,0.00,,,0.01,weatherlink.com 1.10,2013-08-23 13:28:00,
2013-08-23 09:43:00,69.7,61.0,30.12,NNW,344,2.0,6.0,75,0.00,,,0.01,weatherlink.com 1.10,2013-08-23 13:43:00,
2013-08-23 09:58:00,70.7,60.0,30.12,NE,48,2.0,5.0,69,0.00,,,0.01,weatherlink.com 1.10,2013-08-23 13:58:00,
2013-08-23 10:13:00,71.2,60.0,30.13,North,355,2.0,7.0,67,0.00,,,0.01,weatherlink.com 1.10,2013-08-23 14:13:00,
2013-08-23 10:28:00,72.3,59.0,30.13,NNE,26,4.0,10.0,64,0.00,,,0.01,weatherlink.com 1.10,2013-08-23 14:28:00,
2013-08-23 10:43:00,73.2,60.0,30.13,NNE,27,2.0,9.0,63,0.00,,,0.01,weatherlink.com 1.10,2013-08-23 14:43:00,
2013-08-23 10:58:00,73.9,59.0,30.13,North,10,3.0,8.0,60,0.00,,,0.01,weatherlink.com 1.10,2013-08-23 14:58:00,
2013-08-23 11:13:00,74.6,58.0,30.13,NNE,24,3.0,5.0,57,0.00,,,0.01,weatherlink.com 1.10,2013-08-23 15:13:00,
2013-08-23 11:28:00,75.3,59.0,30.13,NW,317,1.0,9.0,57,0.00,,,0.01,weatherlink.com 1.10,2013-08-23 15:28:00,
2013-08-23 11:43:00,76.0,62.0,30.13,ENE,59,1.0,9.0,62,0.00,,,0.01,weatherlink.com 1.10,2013-08-23 15:43:00,
2013-08-23 11:58:00,76.7,58.0,30.13,NNW,347,2.0,8.0,52,0.00,,,0.01,weatherlink.com 1.10,2013-08-23 15:58:00,
2013-08-23 12:13:00,77.1,55.0,30.13,North,9,3.0,9.0,47,0.00,,,0.01,weatherlink.com 1.10,2013-08-23 16:13:00,
2013-08-23 12:29:00,77.2,57.0,30.13,NW,325,8.0,11.0,50,0.00,,,0.01,weatherlink.com 1.10,2013-08-23 16:29:00,
2013-08-23 12:44:00,77.8,57.0,30.12,NW,309,3.0,6.0,49,0.00,,,0.01,weatherlink.com 1.10,2013-08-23 16:44:00,
2013-08-23 12:59:00,77.7,56.0,30.13,North,5,1.0,8.0,47,0.00,,,0.01,weatherlink.com 1.10,2013-08-23 16:59:00,
2013-08-23 13:14:00,78.0,58.0,30.13,WSW,243,4.0,8.0,51,0.00,,,0.01,weatherlink.com 1.10,2013-08-23 17:14:00,
2013-08-23 13:29:00,78.0,55.0,30.13,NE,38,2.0,5.0,45,0.00,,,0.01,weatherlink.com 1.10,2013-08-23 17:29:00,
2013-08-23 13:44:00,78.9,57.0,30.12,WSW,246,2.0,5.0,48,0.00,,,0.01,weatherlink.com 1.10,2013-08-23 17:44:00,
2013-08-23 13:59:00,78.7,53.0,30.13,North,9,1.0,6.0,41,0.00,,,0.01,weatherlink.com 1.10,2013-08-23 17:59:00,
2013-08-23 14:14:00,78.9,56.0,30.13,ENE,66,3.0,9.0,45,0.00,,,0.01,weatherlink.com 1.10,2013-08-23 18:14:00,
2013-08-23 14:29:00,78.7,52.0,30.12,North,5,4.0,8.0,39,0.00,,,0.01,weatherlink.com 1.10,2013-08-23 18:29:00,
2013-08-23 14:44:00,79.3,52.0,30.12,East,94,3.0,6.0,39,0.00,,,0.01,weatherlink.com 1.10,2013-08-23 18:44:00,
2013-08-23 14:59:00,79.4,52.0,30.12,North,351,1.0,6.0,38,0.00,,,0.01,weatherlink.com 1.10,2013-08-23 18:59:00,
2013-08-23 15:14:00,79.4,56.0,30.12,NNE,14,4.0,6.0,45,0.00,,,0.01,weatherlink.com 1.10,2013-08-23 19:14:00,
2013-08-23 15:29:00,79.3,54.0,30.11,NNW,329,1.0,6.0,42,0.00,,,0.01,weatherlink.com 1.10,2013-08-23 19:29:00,
2013-08-23 15:44:00,79.7,55.0,30.11,ENE,60,5.0,9.0,42,0.00,,,0.01,weatherlink.com 1.10,2013-08-23 19:44:00,
2013-08-23 15:59:00,79.6,56.0,30.11,ENE,76,2.0,6.0,45,0.00,,,0.01,weatherlink.com 1.10,2013-08-23 19:59:00,
2013-08-23 16:14:00,79.9,53.0,30.11,East,96,7.0,7.0,40,0.00,,,0.01,weatherlink.com 1.10,2013-08-23 20:14:00,
2013-08-23 16:29:00,79.6,52.0,30.11,North,5,3.0,8.0,39,0.00,,,0.01,weatherlink.com 1.10,2013-08-23 20:29:00,
2013-08-23 16:44:00,80.1,57.0,30.11,ENE,74,2.0,6.0,45,0.00,,,0.01,weatherlink.com 1.10,2013-08-23 20:44:00,
2013-08-23 16:59:00,80.2,53.0,30.11,North,360,2.0,8.0,39,0.00,,,0.01,weatherlink.com 1.10,2013-08-23 20:59:00,
2013-08-23 17:14:00,80.1,55.0,30.10,ENE,63,3.0,5.0,42,0.00,,,0.01,weatherlink.com 1.10,2013-08-23 21:14:00,
2013-08-23 17:29:00,80.0,55.0,30.10,NE,47,1.0,7.0,43,0.00,,,0.01,weatherlink.com 1.10,2013-08-23 21:29:00,
2013-08-23 17:44:00,80.4,56.0,30.10,NE,39,3.0,3.0,43,0.00,,,0.01,weatherlink.com 1.10,2013-08-23 21:44:00,
2013-08-23 17:59:00,80.1,53.0,30.10,ENE,65,2.0,5.0,39,0.00,,,0.01,weatherlink.com 1.10,2013-08-23 21:59:00,
2013-08-23 18:14:00,80.0,53.0,30.10,SSW,196,1.0,3.0,39,0.00,,,0.01,weatherlink.com 1.10,2013-08-23 22:14:00,
2013-08-23 18:29:00,80.5,53.0,30.11,ENE,74,2.0,3.0,38,0.00,,,0.01,weatherlink.com 1.10,2013-08-23 22:29:00,
2013-08-23 18:44:00,79.8,58.0,30.11,SSW,192,3.0,6.0,48,0.00,,,0.01,weatherlink.com 1.10,2013-08-23 22:44:00,
2013-08-23 18:59:00,78.4,60.0,30.11,South,176,2.0,5.0,53,0.00,,,0.01,weatherlink.com 1.10,2013-08-23 22:59:00,
2013-08-23 19:14:00,76.9,58.0,30.11,SE,124,1.0,5.0,53,0.00,,,0.01,weatherlink.com 1.10,2013-08-23 23:14:00,
2013-08-23 19:29:00,76.0,61.0,30.11,SE,124,1.0,3.0,59,0.00,,,0.01,weatherlink.com 1.10,2013-08-23 23:29:00,
2013-08-23 19:44:00,74.9,58.0,30.11,ESE,123,1.0,4.0,56,0.00,,,0.01,weatherlink.com 1.10,2013-08-23 23:44:00,
2013-08-23 19:59:00,73.9,61.0,30.11,SE,136,0.0,2.0,65,0.00,,,0.01,weatherlink.com 1.10,2013-08-23 23:59:00,
2013-08-23 20:14:00,72.5,62.0,30.11,SE,136,0.0,2.0,70,0.00,,,0.01,weatherlink.com 1.10,2013-08-24 00:14:00,
2013-08-23 20:29:00,71.0,62.0,30.12,SE,136,0.0,1.0,73,0.00,,,0.01,weatherlink.com 1.10,2013-08-24 00:29:00,
2013-08-23 20:44:00,69.7,60.0,30.12,SE,136,0.0,0.0,72,0.00,,,0.01,weatherlink.com 1.10,2013-08-24 00:44:00,
2013-08-23 20:59:00,68.1,61.0,30.13,SE,136,1.0,1.0,78,0.00,,,0.01,weatherlink.com 1.10,2013-08-24 00:59:00,
2013-08-23 21:14:00,67.2,61.0,30.14,SE,136,0.0,1.0,79,0.00,,,0.01,weatherlink.com 1.10,2013-08-24 01:14:00,
2013-08-23 21:29:00,66.2,60.0,30.15,SE,136,0.0,1.0,80,0.00,,,0.01,weatherlink.com 1.10,2013-08-24 01:29:00,
2013-08-23 21:44:00,65.3,59.0,30.15,ESE,103,1.0,2.0,81,0.00,,,0.01,weatherlink.com 1.10,2013-08-24 01:44:00,
2013-08-23 21:59:00,64.9,60.0,30.16,East,91,1.0,2.0,83,0.00,,,0.01,weatherlink.com 1.10,2013-08-24 01:59:00,
2013-08-23 22:14:00,64.5,60.0,30.17,ENE,71,1.0,3.0,85,0.00,,,0.01,weatherlink.com 1.10,2013-08-24 02:14:00,
2013-08-23 22:29:00,64.5,59.0,30.17,ENE,71,3.0,4.0,83,0.00,,,0.01,weatherlink.com 1.10,2013-08-24 02:29:00,
2013-08-23 22:44:00,65.8,60.0,30.18,East,81,3.0,5.0,80,0.00,,,0.01,weatherlink.com 1.10,2013-08-24 02:44:00,
2013-08-23 22:59:00,66.5,59.0,30.18,East,84,2.0,5.0,77,0.00,,,0.01,weatherlink.com 1.10,2013-08-24 02:59:00,
2013-08-23 23:14:00,66.5,59.0,30.18,ENE,69,2.0,6.0,76,0.00,,,0.01,weatherlink.com 1.10,2013-08-24 03:14:00,
2013-08-23 23:29:00,65.8,58.0,30.19,ENE,65,3.0,6.0,77,0.00,,,0.01,weatherlink.com 1.10,2013-08-24 03:29:00,
2013-08-23 23:44:00,64.9,58.0,30.19,ENE,69,1.0,2.0,78,0.00,,,0.01,weatherlink.com 1.10,2013-08-24 03:44:00,
2013-08-23 23:59:00,64.3,58.0,30.19,ENE,69,2.0,4.0,79,0.00,,,0.01,weatherlink.com 1.10,2013-08-24 03:59:00,